sensor_id;sensor_type;location;lat;lon;timestamp;pressure;altitude;pressure_sealevel;temperature;humidity
75747;BME280;64363;52.198;21.020;2023-02-04T14:41:13;101656.59;;;-0.71;56.31
75747;BME280;64363;52.198;21.020;2023-02-04T14:43:41;101669.22;;;-0.84;56.25
75747;BME280;64363;52.198;21.020;2023-02-04T14:46:07;101664.59;;;-0.91;55.94
75747;BME280;64363;52.198;21.020;2023-02-04T14:48:33;101675.94;;;-0.91;56.50
75747;BME280;64363;52.198;21.020;2023-02-04T14:50:59;101686.16;;;-0.99;57.35
75747;BME280;64363;52.198;21.020;2023-02-04T14:53:25;101682.53;;;-1.02;57.86
75747;BME280;64363;52.198;21.020;2023-02-04T14:55:51;101686.09;;;-1.00;58.22
75747;BME280;64363;52.198;21.020;2023-02-04T14:58:17;101684.97;;;-1.07;57.88
75747;BME280;64363;52.198;21.020;2023-02-04T15:00:42;101686.59;;;-1.10;57.54
75747;BME280;64363;52.198;21.020;2023-02-04T15:03:08;101698.78;;;-1.11;57.87
75747;BME280;64363;52.198;21.020;2023-02-04T15:05:34;101699.34;;;-1.19;57.67
75747;BME280;64363;52.198;21.020;2023-02-04T15:08:00;101701.22;;;-1.15;57.62
75747;BME280;64363;52.198;21.020;2023-02-04T15:10:25;101700.22;;;-1.19;58.39
75747;BME280;64363;52.198;21.020;2023-02-04T15:12:51;101714.03;;;-1.23;57.88
75747;BME280;64363;52.198;21.020;2023-02-04T15:15:19;101707.88;;;-1.25;58.24
75747;BME280;64363;52.198;21.020;2023-02-04T15:17:45;101708.81;;;-1.23;58.57
75747;BME280;64363;52.198;21.020;2023-02-04T15:20:11;101712.97;;;-1.28;58.63
75747;BME280;64363;52.198;21.020;2023-02-04T15:22:38;101716.44;;;-1.29;58.49
75747;BME280;64363;52.198;21.020;2023-02-04T15:25:04;101711.03;;;-1.33;58.26
75747;BME280;64363;52.198;21.020;2023-02-04T15:27:30;101714.41;;;-1.36;58.72
75747;BME280;64363;52.198;21.020;2023-02-04T15:29:55;101719.63;;;-1.36;58.18
75747;BME280;64363;52.198;21.020;2023-02-04T15:32:21;101715.13;;;-1.40;58.22
75747;BME280;64363;52.198;21.020;2023-02-04T15:34:47;101715.13;;;-1.40;58.80
75747;BME280;64363;52.198;21.020;2023-02-04T15:37:13;101721.97;;;-1.44;58.96
75747;BME280;64363;52.198;21.020;2023-02-04T15:39:38;101731.41;;;-1.47;58.81
75747;BME280;64363;52.198;21.020;2023-02-04T15:42:05;101727.81;;;-1.51;59.71
75747;BME280;64363;52.198;21.020;2023-02-04T15:44:31;101738.56;;;-1.43;59.30
75747;BME280;64363;52.198;21.020;2023-02-04T15:46:57;101730.72;;;-1.43;59.86
75747;BME280;64363;52.198;21.020;2023-02-04T15:49:22;101741.06;;;-1.46;58.52
75747;BME280;64363;52.198;21.020;2023-02-04T15:51:48;101744.69;;;-1.43;59.48
75747;BME280;64363;52.198;21.020;2023-02-04T15:54:14;101749.09;;;-1.42;59.06
75747;BME280;64363;52.198;21.020;2023-02-04T15:56:40;101756.97;;;-1.40;60.08
75747;BME280;64363;52.198;21.020;2023-02-04T15:59:06;101762.19;;;-1.40;59.55
75747;BME280;64363;52.198;21.020;2023-02-04T16:01:31;101765.69;;;-1.41;60.25
75747;BME280;64363;52.198;21.020;2023-02-04T16:03:57;101776.13;;;-1.41;59.93
75747;BME280;64363;52.198;21.020;2023-02-04T16:06:23;101773.38;;;-1.44;60.10
75747;BME280;64363;52.198;21.020;2023-02-04T16:08:49;101783.72;;;-1.47;59.88
75747;BME280;64363;52.198;21.020;2023-02-04T16:11:15;101784.56;;;-1.48;60.79
75747;BME280;64363;52.198;21.020;2023-02-04T16:13:41;101774.94;;;-1.49;60.38
75747;BME280;64363;52.198;21.020;2023-02-04T16:16:07;101780.41;;;-1.43;60.21
75747;BME280;64363;52.198;21.020;2023-02-04T16:18:32;101784.56;;;-1.48;61.01
75747;BME280;64363;52.198;21.020;2023-02-04T16:20:58;101771.44;;;-1.50;61.19
75747;BME280;64363;52.198;21.020;2023-02-04T16:23:24;101784.06;;;-1.60;60.64
75747;BME280;64363;52.198;21.020;2023-02-04T16:25:50;101794.28;;;-1.66;60.93
75747;BME280;64363;52.198;21.020;2023-02-04T16:28:16;101787.88;;;-1.74;60.04
75747;BME280;64363;52.198;21.020;2023-02-04T16:30:42;101789.66;;;-1.73;61.71
75747;BME280;64363;52.198;21.020;2023-02-04T16:33:08;101793.81;;;-1.78;60.67
75747;BME280;64363;52.198;21.020;2023-02-04T16:36:03;101796.22;;;-1.83;61.07
75747;BME280;64363;52.198;21.020;2023-02-04T16:38:29;101790.75;;;-1.89;61.79
75747;BME280;64363;52.198;21.020;2023-02-04T16:40:56;101794.31;;;-1.87;61.99
75747;BME280;64363;52.198;21.020;2023-02-04T16:43:22;101799.53;;;-1.87;61.45
75747;BME280;64363;52.198;21.020;2023-02-04T16:45:49;101801.22;;;-1.89;62.36
75747;BME280;64363;52.198;21.020;2023-02-04T16:48:15;101808.09;;;-1.91;61.66
75747;BME280;64363;52.198;21.020;2023-02-04T16:50:42;101808.00;;;-1.93;62.53
75747;BME280;64363;52.198;21.020;2023-02-04T16:53:08;101817.66;;;-1.92;61.51
75747;BME280;64363;52.198;21.020;2023-02-04T16:55:42;101824.47;;;-1.95;63.10
75747;BME280;64363;52.198;21.020;2023-02-04T16:58:08;101839.31;;;-1.94;62.89
75747;BME280;64363;52.198;21.020;2023-02-04T17:00:38;101843.78;;;-1.92;62.19
75747;BME280;64363;52.198;21.020;2023-02-04T17:03:10;101842.97;;;-1.91;62.81
75747;BME280;64363;52.198;21.020;2023-02-04T17:05:37;101847.47;;;-1.86;62.86
75747;BME280;64363;52.198;21.020;2023-02-04T17:08:04;101836.34;;;-1.82;62.54
75747;BME280;64363;52.198;21.020;2023-02-04T17:10:30;101851.13;;;-1.83;62.81
75747;BME280;64363;52.198;21.020;2023-02-04T17:13:15;101847.38;;;-1.90;62.10
75747;BME280;64363;52.198;21.020;2023-02-04T17:15:41;101839.38;;;-1.93;62.74
75747;BME280;64363;52.198;21.020;2023-02-04T17:18:06;101851.38;;;-1.98;64.29
75747;BME280;64363;52.198;21.020;2023-02-04T17:20:32;101861.94;;;-1.95;63.60
75747;BME280;64363;52.198;21.020;2023-02-04T17:22:58;101853.72;;;-2.04;63.65
75747;BME280;64363;52.198;21.020;2023-02-04T17:25:24;101866.94;;;-2.01;63.10
75747;BME280;64363;52.198;21.020;2023-02-04T17:27:51;101865.13;;;-2.02;63.25
75747;BME280;64363;52.198;21.020;2023-02-04T17:30:18;101864.94;;;-2.06;64.04
75747;BME280;64363;52.198;21.020;2023-02-04T17:32:44;101876.69;;;-1.97;63.38
75747;BME280;64363;52.198;21.020;2023-02-04T17:35:11;101877.56;;;-1.96;63.95
75747;BME280;64363;52.198;21.020;2023-02-04T17:37:37;101880.50;;;-1.89;62.62
75747;BME280;64363;52.198;21.020;2023-02-04T17:40:03;101883.25;;;-1.85;62.84
75747;BME280;64363;52.198;21.020;2023-02-04T17:42:29;101880.16;;;-1.77;61.89
75747;BME280;64363;52.198;21.020;2023-02-04T17:44:55;101888.09;;;-1.74;62.26
75747;BME280;64363;52.198;21.020;2023-02-04T17:47:21;101890.72;;;-1.74;61.69
75747;BME280;64363;52.198;21.020;2023-02-04T17:49:47;101888.16;;;-1.72;61.30
75747;BME280;64363;52.198;21.020;2023-02-04T17:52:13;101890.84;;;-1.71;62.07
75747;BME280;64363;52.198;21.020;2023-02-04T17:54:38;101901.41;;;-1.68;61.42
75747;BME280;64363;52.198;21.020;2023-02-04T17:57:18;101898.75;;;-1.69;61.74
75747;BME280;64363;52.198;21.020;2023-02-04T17:59:45;101904.00;;;-1.69;62.07
75747;BME280;64363;52.198;21.020;2023-02-04T18:02:30;101900.69;;;-1.65;62.10
75747;BME280;64363;52.198;21.020;2023-02-04T18:04:58;101913.59;;;-1.68;62.28
75747;BME280;64363;52.198;21.020;2023-02-04T18:07:25;101908.38;;;-1.68;61.42
75747;BME280;64363;52.198;21.020;2023-02-04T18:09:51;101919.09;;;-1.62;61.54
75747;BME280;64363;52.198;21.020;2023-02-04T18:12:18;101915.50;;;-1.64;61.23
75747;BME280;64363;52.198;21.020;2023-02-04T18:14:44;101907.66;;;-1.64;61.50
75747;BME280;64363;52.198;21.020;2023-02-04T18:17:13;101926.25;;;-1.58;63.59
75747;BME280;64363;52.198;21.020;2023-02-04T18:19:40;101918.41;;;-1.58;62.59
75747;BME280;64363;52.198;21.020;2023-02-04T18:22:11;101916.38;;;-1.65;61.98
75747;BME280;64363;52.198;21.020;2023-02-04T18:24:38;101923.34;;;-1.64;62.44
75747;BME280;64363;52.198;21.020;2023-02-04T18:27:21;101918.91;;;-1.67;62.48
75747;BME280;64363;52.198;21.020;2023-02-04T18:29:50;101919.78;;;-1.66;63.38
75747;BME280;64363;52.198;21.020;2023-02-04T18:32:37;101924.63;;;-1.75;63.38
75747;BME280;64363;52.198;21.020;2023-02-04T18:37:50;101925.06;;;-1.85;63.67
75747;BME280;64363;52.198;21.020;2023-02-04T18:40:27;101925.91;;;-1.86;63.98
75747;BME280;64363;52.198;21.020;2023-02-04T18:45:48;101920.13;;;-1.99;66.54
75747;BME280;64363;52.198;21.020;2023-02-04T18:50:47;101958.66;;;-1.95;67.91
75747;BME280;64363;52.198;21.020;2023-02-04T18:55:44;101955.59;;;-1.84;68.40
75747;BME280;64363;52.198;21.020;2023-02-04T19:00:47;101959.59;;;-1.93;68.87
75747;BME280;64363;52.198;21.020;2023-02-04T19:03:23;101956.97;;;-1.93;69.09
75747;BME280;64363;52.198;21.020;2023-02-04T19:05:49;101960.25;;;-1.98;68.68
75747;BME280;64363;52.198;21.020;2023-02-04T19:11:00;101971.47;;;-2.01;69.18
75747;BME280;64363;52.198;21.020;2023-02-04T19:13:35;101971.31;;;-2.04;69.72
75747;BME280;64363;52.198;21.020;2023-02-04T19:16:32;101970.47;;;-2.03;69.58
75747;BME280;64363;52.198;21.020;2023-02-04T19:18:59;101972.53;;;-1.96;69.46
75747;BME280;64363;52.198;21.020;2023-02-04T19:21:30;101972.63;;;-1.94;69.89
75747;BME280;64363;52.198;21.020;2023-02-04T19:24:06;101981.47;;;-1.91;70.04
75747;BME280;64363;52.198;21.020;2023-02-04T19:26:39;101981.97;;;-1.99;69.74
75747;BME280;64363;52.198;21.020;2023-02-04T19:29:36;101983.84;;;-1.97;70.91
75747;BME280;64363;52.198;21.020;2023-02-04T19:32:18;101993.44;;;-1.96;70.53
75747;BME280;64363;52.198;21.020;2023-02-04T19:34:46;101991.81;;;-1.94;71.37
75747;BME280;64363;52.198;21.020;2023-02-04T19:37:19;101995.72;;;-2.03;70.64
75747;BME280;64363;52.198;21.020;2023-02-04T19:39:47;101995.84;;;-2.00;69.96
75747;BME280;64363;52.198;21.020;2023-02-04T19:42:28;101995.03;;;-1.99;70.91
75747;BME280;64363;52.198;21.020;2023-02-04T19:44:56;101997.78;;;-1.96;69.41
75747;BME280;64363;52.198;21.020;2023-02-04T19:47:28;102005.44;;;-2.01;69.68
75747;BME280;64363;52.198;21.020;2023-02-04T19:50:26;101995.25;;;-1.95;69.83
75747;BME280;64363;52.198;21.020;2023-02-04T19:53:21;101998.97;;;-1.90;70.25
75747;BME280;64363;52.198;21.020;2023-02-04T19:55:51;101995.66;;;-1.85;69.59
75747;BME280;64363;52.198;21.020;2023-02-04T19:58:28;102007.19;;;-1.80;72.74
75747;BME280;64363;52.198;21.020;2023-02-04T20:01:01;102003.34;;;-1.69;71.96
75747;BME280;64363;52.198;21.020;2023-02-04T20:03:42;102003.78;;;-1.59;72.73
75747;BME280;64363;52.198;21.020;2023-02-04T20:06:24;102002.66;;;-1.65;72.03
75747;BME280;64363;52.198;21.020;2023-02-04T20:08:58;102005.13;;;-1.88;69.70
75747;BME280;64363;52.198;21.020;2023-02-04T20:16:43;102022.31;;;-1.93;70.39
75747;BME280;64363;52.198;21.020;2023-02-04T20:19:26;102032.72;;;-1.94;69.98
75747;BME280;64363;52.198;21.020;2023-02-04T20:27:53;102035.25;;;-2.15;70.96
75747;BME280;64363;52.198;21.020;2023-02-04T20:30:27;102035.38;;;-2.12;70.98
75747;BME280;64363;52.198;21.020;2023-02-04T20:32:58;102037.72;;;-2.18;70.97
75747;BME280;64363;52.198;21.020;2023-02-04T20:38:17;102040.34;;;-2.18;70.71
75747;BME280;64363;52.198;21.020;2023-02-04T20:40:42;102049.81;;;-2.20;71.88
75747;BME280;64363;52.198;21.020;2023-02-04T20:43:15;102045.47;;;-2.19;71.88
75747;BME280;64363;52.198;21.020;2023-02-04T20:45:54;102059.06;;;-2.09;71.60
75747;BME280;64363;52.198;21.020;2023-02-04T20:48:27;102057.81;;;-2.17;71.84
75747;BME280;64363;52.198;21.020;2023-02-04T20:50:57;102060.44;;;-2.17;71.90
75747;BME280;64363;52.198;21.020;2023-02-04T20:53:37;102065.69;;;-2.15;71.78
75747;BME280;64363;52.198;21.020;2023-02-04T20:56:32;102064.00;;;-2.15;71.47
75747;BME280;64363;52.198;21.020;2023-02-04T20:59:28;102072.50;;;-2.19;72.60
75747;BME280;64363;52.198;21.020;2023-02-04T21:01:55;102077.72;;;-2.19;72.04
75747;BME280;64363;52.198;21.020;2023-02-04T21:04:30;102074.00;;;-2.24;71.95
75747;BME280;64363;52.198;21.020;2023-02-04T21:07:01;102072.38;;;-2.22;72.37
75747;BME280;64363;52.198;21.020;2023-02-04T21:09:30;102081.16;;;-2.20;72.30
75747;BME280;64363;52.198;21.020;2023-02-04T21:11:57;102087.41;;;-2.16;71.84
75747;BME280;64363;52.198;21.020;2023-02-04T21:14:25;102095.56;;;-2.10;72.26
75747;BME280;64363;52.198;21.020;2023-02-04T21:16:51;102081.03;;;-2.23;71.84
75747;BME280;64363;52.198;21.020;2023-02-04T21:19:18;102090.66;;;-2.22;72.59
75747;BME280;64363;52.198;21.020;2023-02-04T21:21:44;102095.31;;;-2.34;72.53
75747;BME280;64363;52.198;21.020;2023-02-04T21:24:10;102101.06;;;-2.41;72.46
75747;BME280;64363;52.198;21.020;2023-02-04T21:26:35;102095.66;;;-2.44;73.42
75747;BME280;64363;52.198;21.020;2023-02-04T21:29:01;102105.59;;;-2.55;74.24
75747;BME280;64363;52.198;21.020;2023-02-04T21:31:27;102108.59;;;-2.65;74.05
75747;BME280;64363;52.198;21.020;2023-02-04T21:33:53;102116.72;;;-2.59;75.07
75747;BME280;64363;52.198;21.020;2023-02-04T21:36:19;102114.34;;;-2.54;76.20
75747;BME280;64363;52.198;21.020;2023-02-04T21:38:45;102105.69;;;-2.53;78.44
75747;BME280;64363;52.198;21.020;2023-02-04T21:41:12;102116.72;;;-2.59;74.89
75747;BME280;64363;52.198;21.020;2023-02-04T21:43:38;102110.97;;;-2.69;75.03
75747;BME280;64363;52.198;21.020;2023-02-04T21:46:04;102125.03;;;-2.84;75.40
75747;BME280;64363;52.198;21.020;2023-02-04T21:48:30;102123.84;;;-2.90;74.50
75747;BME280;64363;52.198;21.020;2023-02-04T21:50:56;102131.44;;;-2.95;74.88
75747;BME280;64363;52.198;21.020;2023-02-04T21:53:21;102118.91;;;-3.02;75.15
75747;BME280;64363;52.198;21.020;2023-02-04T21:55:47;102130.91;;;-3.05;75.63
75747;BME280;64363;52.198;21.020;2023-02-04T21:58:13;102131.22;;;-2.99;75.48
75747;BME280;64363;52.198;21.020;2023-02-04T22:00:38;102137.91;;;-3.04;75.79
75747;BME280;64363;52.198;21.020;2023-02-04T22:03:04;102148.75;;;-3.13;76.17
75747;BME280;64363;52.198;21.020;2023-02-04T22:05:31;102143.53;;;-3.13;76.08
75747;BME280;64363;52.198;21.020;2023-02-04T22:07:56;102152.91;;;-3.16;75.62
75747;BME280;64363;52.198;21.020;2023-02-04T22:10:23;102156.94;;;-3.23;75.83
75747;BME280;64363;52.198;21.020;2023-02-04T22:12:50;102166.41;;;-3.25;76.30
75747;BME280;64363;52.198;21.020;2023-02-04T22:15:16;102165.25;;;-3.30;76.47
75747;BME280;64363;52.198;21.020;2023-02-04T22:17:46;102154.81;;;-3.30;75.96
75747;BME280;64363;52.198;21.020;2023-02-04T22:20:13;102153.13;;;-3.29;75.67
75747;BME280;64363;52.198;21.020;2023-02-04T22:22:43;102162.50;;;-3.33;75.43
75747;BME280;64363;52.198;21.020;2023-02-04T22:25:10;102153.78;;;-3.34;75.80
75747;BME280;64363;52.198;21.020;2023-02-04T22:27:36;102153.53;;;-3.38;76.17
75747;BME280;64363;52.198;21.020;2023-02-04T22:30:03;102155.31;;;-3.37;76.36
75747;BME280;64363;52.198;21.020;2023-02-04T22:32:29;102157.84;;;-3.39;76.77
75747;BME280;64363;52.198;21.020;2023-02-04T22:34:55;102164.50;;;-3.44;76.96
75747;BME280;64363;52.198;21.020;2023-02-04T22:37:21;102166.72;;;-3.51;77.27
75747;BME280;64363;52.198;21.020;2023-02-04T22:39:47;102176.50;;;-3.47;77.19
75747;BME280;64363;52.198;21.020;2023-02-04T22:42:12;102178.94;;;-3.50;77.30
75747;BME280;64363;52.198;21.020;2023-02-04T22:44:38;102175.44;;;-3.51;77.15
75747;BME280;64363;52.198;21.020;2023-02-04T22:47:04;102182.25;;;-3.53;77.29
75747;BME280;64363;52.198;21.020;2023-02-04T22:49:30;102185.78;;;-3.52;77.61
75747;BME280;64363;52.198;21.020;2023-02-04T22:52:02;102190.19;;;-3.51;77.09
75747;BME280;64363;52.198;21.020;2023-02-04T22:54:28;102188.47;;;-3.51;77.11
75747;BME280;64363;52.198;21.020;2023-02-04T22:56:54;102197.50;;;-3.60;77.76
75747;BME280;64363;52.198;21.020;2023-02-04T22:59:23;102205.31;;;-3.60;76.96
75747;BME280;64363;52.198;21.020;2023-02-04T23:01:48;102210.72;;;-3.57;77.16
75747;BME280;64363;52.198;21.020;2023-02-04T23:04:14;102209.81;;;-3.58;77.14
75747;BME280;64363;52.198;21.020;2023-02-04T23:06:40;102213.22;;;-3.59;77.23
75747;BME280;64363;52.198;21.020;2023-02-04T23:09:06;102218.44;;;-3.59;77.56
75747;BME280;64363;52.198;21.020;2023-02-04T23:11:31;102216.38;;;-3.64;77.18
75747;BME280;64363;52.198;21.020;2023-02-04T23:13:57;102228.59;;;-3.63;77.78
75747;BME280;64363;52.198;21.020;2023-02-04T23:16:23;102228.59;;;-3.63;77.40
75747;BME280;64363;52.198;21.020;2023-02-04T23:18:49;102226.66;;;-3.67;78.09
75747;BME280;64363;52.198;21.020;2023-02-04T23:21:15;102225.03;;;-3.65;78.26
75747;BME280;64363;52.198;21.020;2023-02-04T23:23:41;102224.03;;;-3.67;77.90
75747;BME280;64363;52.198;21.020;2023-02-04T23:26:07;102226.47;;;-3.70;77.46
75747;BME280;64363;52.198;21.020;2023-02-04T23:28:33;102218.56;;;-3.72;77.69
75747;BME280;64363;52.198;21.020;2023-02-04T23:30:59;102228.28;;;-3.69;77.71
75747;BME280;64363;52.198;21.020;2023-02-04T23:33:25;102237.38;;;-3.78;77.54
75747;BME280;64363;52.198;21.020;2023-02-04T23:35:50;102237.13;;;-3.82;78.29
75747;BME280;64363;52.198;21.020;2023-02-04T23:38:16;102236.22;;;-3.83;78.10
75747;BME280;64363;52.198;21.020;2023-02-04T23:40:42;102242.25;;;-3.84;78.72
75747;BME280;64363;52.198;21.020;2023-02-04T23:43:08;102245.66;;;-3.85;78.66
75747;BME280;64363;52.198;21.020;2023-02-04T23:45:33;102243.78;;;-3.87;78.34
75747;BME280;64363;52.198;21.020;2023-02-04T23:47:59;102243.47;;;-3.93;78.00
75747;BME280;64363;52.198;21.020;2023-02-04T23:50:25;102245.66;;;-3.85;77.65
75747;BME280;64363;52.198;21.020;2023-02-04T23:52:51;102255.09;;;-3.87;76.76
75747;BME280;64363;52.198;21.020;2023-02-04T23:55:16;102251.88;;;-3.83;77.15
75747;BME280;64363;52.198;21.020;2023-02-04T23:57:42;102253.09;;;-3.76;76.74
